sensor_id;sensor_type;location;lat;lon;timestamp;temperature;humidity
1083;DHT22;530;51.448;7.238;2022-12-07T00:01:31;6.20;99.90
1083;DHT22;530;51.448;7.238;2022-12-07T00:03:59;6.30;99.90
1083;DHT22;530;51.448;7.238;2022-12-07T00:06:32;6.10;99.90
1083;DHT22;530;51.448;7.238;2022-12-07T00:08:58;6.10;99.90
1083;DHT22;530;51.448;7.238;2022-12-07T00:11:25;6.10;99.90
1083;DHT22;530;51.448;7.238;2022-12-07T00:13:58;6.10;99.90
1083;DHT22;530;51.448;7.238;2022-12-07T00:16:27;6.00;99.90
1083;DHT22;530;51.448;7.238;2022-12-07T00:18:54;6.20;99.90
1083;DHT22;530;51.448;7.238;2022-12-07T00:21:22;6.20;99.90
1083;DHT22;530;51.448;7.238;2022-12-07T00:23:50;6.10;99.90
1083;DHT22;530;51.448;7.238;2022-12-07T00:26:20;6.10;99.90
1083;DHT22;530;51.448;7.238;2022-12-07T00:28:47;6.10;99.90
1083;DHT22;530;51.448;7.238;2022-12-07T00:31:14;6.30;99.90
1083;DHT22;530;51.448;7.238;2022-12-07T00:33:40;6.20;99.90
1083;DHT22;530;51.448;7.238;2022-12-07T00:36:09;6.20;99.90
1083;DHT22;530;51.448;7.238;2022-12-07T00:38:36;6.00;99.90
1083;DHT22;530;51.448;7.238;2022-12-07T00:41:04;6.10;99.90
1083;DHT22;530;51.448;7.238;2022-12-07T00:43:30;6.10;99.90
1083;DHT22;530;51.448;7.238;2022-12-07T00:45:56;6.30;99.90
1083;DHT22;530;51.448;7.238;2022-12-07T00:48:22;6.10;99.90
1083;DHT22;530;51.448;7.238;2022-12-07T00:50:49;6.10;99.90
1083;DHT22;530;51.448;7.238;2022-12-07T00:53:15;6.00;99.90
1083;DHT22;530;51.448;7.238;2022-12-07T00:55:41;6.30;99.90
1083;DHT22;530;51.448;7.238;2022-12-07T00:58:06;6.10;99.90
1083;DHT22;530;51.448;7.238;2022-12-07T01:00:33;6.10;99.90
1083;DHT22;530;51.448;7.238;2022-12-07T01:03:00;6.30;99.90
1083;DHT22;530;51.448;7.238;2022-12-07T01:05:25;6.20;99.90
1083;DHT22;530;51.448;7.238;2022-12-07T01:07:51;6.10;99.90
1083;DHT22;530;51.448;7.238;2022-12-07T01:10:17;6.20;99.90
1083;DHT22;530;51.448;7.238;2022-12-07T01:12:42;6.30;99.90
1083;DHT22;530;51.448;7.238;2022-12-07T01:15:08;6.40;99.90
1083;DHT22;530;51.448;7.238;2022-12-07T01:17:34;6.40;99.90
1083;DHT22;530;51.448;7.238;2022-12-07T01:20:01;6.30;99.90
1083;DHT22;530;51.448;7.238;2022-12-07T01:22:27;6.30;99.90
1083;DHT22;530;51.448;7.238;2022-12-07T01:24:52;6.20;99.90
1083;DHT22;530;51.448;7.238;2022-12-07T01:27:18;6.20;99.90
1083;DHT22;530;51.448;7.238;2022-12-07T01:29:44;6.20;99.90
1083;DHT22;530;51.448;7.238;2022-12-07T01:32:10;6.20;99.90
1083;DHT22;530;51.448;7.238;2022-12-07T01:34:36;6.20;99.90
1083;DHT22;530;51.448;7.238;2022-12-07T01:37:02;6.30;99.90
1083;DHT22;530;51.448;7.238;2022-12-07T01:39:27;6.30;99.90
1083;DHT22;530;51.448;7.238;2022-12-07T01:41:53;6.20;99.90
1083;DHT22;530;51.448;7.238;2022-12-07T01:46:57;6.30;99.90
1083;DHT22;530;51.448;7.238;2022-12-07T01:49:46;6.20;99.90
1083;DHT22;530;51.448;7.238;2022-12-07T01:52:29;6.20;99.90
1083;DHT22;530;51.448;7.238;2022-12-07T01:55:05;6.20;99.90
1083;DHT22;530;51.448;7.238;2022-12-07T01:57:34;6.20;99.90
1083;DHT22;530;51.448;7.238;2022-12-07T02:00:03;6.20;99.90
1083;DHT22;530;51.448;7.238;2022-12-07T02:02:39;6.20;99.90
1083;DHT22;530;51.448;7.238;2022-12-07T02:05:08;6.30;99.90
1083;DHT22;530;51.448;7.238;2022-12-07T02:07:36;6.10;99.90
1083;DHT22;530;51.448;7.238;2022-12-07T02:10:32;6.10;99.90
1083;DHT22;530;51.448;7.238;2022-12-07T02:18:38;6.20;99.90
1083;DHT22;530;51.448;7.238;2022-12-07T02:27:27;6.20;99.90
1083;DHT22;530;51.448;7.238;2022-12-07T02:30:02;6.20;99.90
1083;DHT22;530;51.448;7.238;2022-12-07T02:33:22;6.30;99.90
1083;DHT22;530;51.448;7.238;2022-12-07T02:38:30;6.30;99.90
1083;DHT22;530;51.448;7.238;2022-12-07T02:41:15;6.30;99.90
1083;DHT22;530;51.448;7.238;2022-12-07T02:43:47;6.30;99.90
1083;DHT22;530;51.448;7.238;2022-12-07T02:46:22;6.30;99.90
1083;DHT22;530;51.448;7.238;2022-12-07T02:48:50;6.30;99.90
1083;DHT22;530;51.448;7.238;2022-12-07T02:51:17;6.30;99.90
1083;DHT22;530;51.448;7.238;2022-12-07T02:53:43;6.30;99.90
1083;DHT22;530;51.448;7.238;2022-12-07T03:12:56;6.30;99.90
1083;DHT22;530;51.448;7.238;2022-12-07T03:18:04;6.30;99.90
1083;DHT22;530;51.448;7.238;2022-12-07T03:20:32;6.30;99.90
1083;DHT22;530;51.448;7.238;2022-12-07T03:22:59;6.10;99.90
1083;DHT22;530;51.448;7.238;2022-12-07T03:25:26;6.20;99.90
1083;DHT22;530;51.448;7.238;2022-12-07T03:27:56;6.30;99.90
1083;DHT22;530;51.448;7.238;2022-12-07T03:30:34;6.10;99.90
1083;DHT22;530;51.448;7.238;2022-12-07T03:35:52;6.10;99.90
1083;DHT22;530;51.448;7.238;2022-12-07T03:38:37;6.40;99.90
1083;DHT22;530;51.448;7.238;2022-12-07T03:41:21;6.30;99.90
1083;DHT22;530;51.448;7.238;2022-12-07T03:43:48;6.10;99.90
1083;DHT22;530;51.448;7.238;2022-12-07T03:51:28;6.20;99.90
1083;DHT22;530;51.448;7.238;2022-12-07T03:56:54;6.10;99.90
1083;DHT22;530;51.448;7.238;2022-12-07T03:59:20;6.30;99.90
1083;DHT22;530;51.448;7.238;2022-12-07T04:01:55;6.20;99.90
1083;DHT22;530;51.448;7.238;2022-12-07T04:04:22;6.00;99.90
1083;DHT22;530;51.448;7.238;2022-12-07T04:06:48;6.10;99.90
1083;DHT22;530;51.448;7.238;2022-12-07T04:09:14;6.10;99.90
1083;DHT22;530;51.448;7.238;2022-12-07T04:11:40;6.20;99.90
1083;DHT22;530;51.448;7.238;2022-12-07T04:14:06;6.30;99.90
1083;DHT22;530;51.448;7.238;2022-12-07T04:16:44;6.20;99.90
1083;DHT22;530;51.448;7.238;2022-12-07T04:19:10;6.20;99.90
1083;DHT22;530;51.448;7.238;2022-12-07T04:21:36;6.00;99.90
1083;DHT22;530;51.448;7.238;2022-12-07T04:24:02;6.10;99.90
1083;DHT22;530;51.448;7.238;2022-12-07T04:26:28;6.10;99.90
1083;DHT22;530;51.448;7.238;2022-12-07T04:28:53;6.20;99.90
1083;DHT22;530;51.448;7.238;2022-12-07T04:31:19;6.00;99.90
1083;DHT22;530;51.448;7.238;2022-12-07T04:33:45;6.30;99.90
1083;DHT22;530;51.448;7.238;2022-12-07T04:36:10;6.10;99.90
1083;DHT22;530;51.448;7.238;2022-12-07T04:38:36;6.20;99.90
1083;DHT22;530;51.448;7.238;2022-12-07T04:41:06;6.10;99.90
1083;DHT22;530;51.448;7.238;2022-12-07T04:43:31;6.00;99.90
1083;DHT22;530;51.448;7.238;2022-12-07T04:45:57;6.10;99.90
1083;DHT22;530;51.448;7.238;2022-12-07T04:48:22;6.10;99.90
1083;DHT22;530;51.448;7.238;2022-12-07T04:50:48;6.10;99.90
1083;DHT22;530;51.448;7.238;2022-12-07T04:53:17;6.00;99.90
1083;DHT22;530;51.448;7.238;2022-12-07T04:55:44;6.10;99.90
1083;DHT22;530;51.448;7.238;2022-12-07T04:58:09;6.10;99.90
1083;DHT22;530;51.448;7.238;2022-12-07T05:00:35;5.90;99.90
1083;DHT22;530;51.448;7.238;2022-12-07T05:03:01;5.90;99.90
1083;DHT22;530;51.448;7.238;2022-12-07T05:05:26;6.00;99.90
1083;DHT22;530;51.448;7.238;2022-12-07T05:07:52;5.80;99.90
1083;DHT22;530;51.448;7.238;2022-12-07T05:10:18;6.00;99.90
1083;DHT22;530;51.448;7.238;2022-12-07T05:12:43;6.00;99.90
1083;DHT22;530;51.448;7.238;2022-12-07T05:15:09;5.90;99.90
1083;DHT22;530;51.448;7.238;2022-12-07T05:17:35;5.90;99.90
1083;DHT22;530;51.448;7.238;2022-12-07T05:20:00;5.90;99.90
1083;DHT22;530;51.448;7.238;2022-12-07T05:22:26;6.10;99.90
1083;DHT22;530;51.448;7.238;2022-12-07T05:24:54;5.90;99.90
1083;DHT22;530;51.448;7.238;2022-12-07T05:27:20;5.80;99.90
1083;DHT22;530;51.448;7.238;2022-12-07T05:29:45;5.90;99.90
1083;DHT22;530;51.448;7.238;2022-12-07T05:32:11;5.80;99.90
1083;DHT22;530;51.448;7.238;2022-12-07T05:34:37;5.80;99.90
1083;DHT22;530;51.448;7.238;2022-12-07T05:37:02;6.10;99.90
1083;DHT22;530;51.448;7.238;2022-12-07T05:39:28;6.10;99.90
1083;DHT22;530;51.448;7.238;2022-12-07T05:41:54;5.90;99.90
1083;DHT22;530;51.448;7.238;2022-12-07T05:44:39;5.70;99.90
1083;DHT22;530;51.448;7.238;2022-12-07T05:47:04;5.70;99.90
1083;DHT22;530;51.448;7.238;2022-12-07T05:49:30;6.00;99.90
1083;DHT22;530;51.448;7.238;2022-12-07T05:51:56;5.70;99.90
1083;DHT22;530;51.448;7.238;2022-12-07T05:54:21;6.00;99.90
1083;DHT22;530;51.448;7.238;2022-12-07T05:56:47;5.80;99.90
1083;DHT22;530;51.448;7.238;2022-12-07T05:59:13;5.90;99.90
1083;DHT22;530;51.448;7.238;2022-12-07T06:01:52;5.80;99.90
1083;DHT22;530;51.448;7.238;2022-12-07T06:04:18;5.80;99.90
1083;DHT22;530;51.448;7.238;2022-12-07T06:06:44;6.00;99.90
1083;DHT22;530;51.448;7.238;2022-12-07T06:09:10;5.80;99.90
1083;DHT22;530;51.448;7.238;2022-12-07T06:11:36;5.80;99.90
1083;DHT22;530;51.448;7.238;2022-12-07T06:14:21;5.70;99.90
1083;DHT22;530;51.448;7.238;2022-12-07T06:16:47;5.80;99.90
1083;DHT22;530;51.448;7.238;2022-12-07T06:19:13;6.00;99.90
1083;DHT22;530;51.448;7.238;2022-12-07T06:21:39;5.80;99.90
1083;DHT22;530;51.448;7.238;2022-12-07T06:24:05;5.70;99.90
1083;DHT22;530;51.448;7.238;2022-12-07T06:26:31;5.70;99.90
1083;DHT22;530;51.448;7.238;2022-12-07T06:28:56;5.80;99.90
1083;DHT22;530;51.448;7.238;2022-12-07T06:31:22;5.80;99.90
1083;DHT22;530;51.448;7.238;2022-12-07T06:33:48;5.90;99.90
1083;DHT22;530;51.448;7.238;2022-12-07T06:36:13;5.80;99.90
1083;DHT22;530;51.448;7.238;2022-12-07T06:38:39;5.80;99.90
1083;DHT22;530;51.448;7.238;2022-12-07T06:41:05;5.90;99.90
1083;DHT22;530;51.448;7.238;2022-12-07T06:43:32;5.90;99.90
1083;DHT22;530;51.448;7.238;2022-12-07T06:45:58;5.80;99.90
1083;DHT22;530;51.448;7.238;2022-12-07T06:48:23;5.80;99.90
1083;DHT22;530;51.448;7.238;2022-12-07T06:50:49;5.70;99.90
1083;DHT22;530;51.448;7.238;2022-12-07T06:53:15;5.80;99.90
1083;DHT22;530;51.448;7.238;2022-12-07T06:55:41;5.80;99.90
1083;DHT22;530;51.448;7.238;2022-12-07T06:58:07;5.80;99.90
1083;DHT22;530;51.448;7.238;2022-12-07T07:00:32;6.00;99.90
1083;DHT22;530;51.448;7.238;2022-12-07T07:03:00;5.70;99.90
1083;DHT22;530;51.448;7.238;2022-12-07T07:05:26;6.00;99.90
1083;DHT22;530;51.448;7.238;2022-12-07T07:07:51;5.70;99.90
1083;DHT22;530;51.448;7.238;2022-12-07T07:10:17;5.80;99.90
1083;DHT22;530;51.448;7.238;2022-12-07T07:12:43;5.70;99.90
1083;DHT22;530;51.448;7.238;2022-12-07T07:15:09;5.70;99.90
1083;DHT22;530;51.448;7.238;2022-12-07T07:17:35;5.60;99.90
1083;DHT22;530;51.448;7.238;2022-12-07T07:20:00;5.70;99.90
1083;DHT22;530;51.448;7.238;2022-12-07T07:22:26;5.60;99.90
1083;DHT22;530;51.448;7.238;2022-12-07T07:24:52;5.60;99.90
1083;DHT22;530;51.448;7.238;2022-12-07T07:27:17;5.70;99.90
1083;DHT22;530;51.448;7.238;2022-12-07T07:29:43;5.70;99.90
1083;DHT22;530;51.448;7.238;2022-12-07T07:32:09;5.70;99.90
1083;DHT22;530;51.448;7.238;2022-12-07T07:34:34;5.60;99.90
1083;DHT22;530;51.448;7.238;2022-12-07T07:37:00;5.60;99.90
1083;DHT22;530;51.448;7.238;2022-12-07T07:39:26;5.50;99.90
1083;DHT22;530;51.448;7.238;2022-12-07T07:41:52;5.80;99.90
1083;DHT22;530;51.448;7.238;2022-12-07T07:44:17;5.50;99.90
1083;DHT22;530;51.448;7.238;2022-12-07T07:46:43;5.50;99.90
1083;DHT22;530;51.448;7.238;2022-12-07T07:49:09;5.60;99.90
1083;DHT22;530;51.448;7.238;2022-12-07T07:51:36;5.70;99.90
1083;DHT22;530;51.448;7.238;2022-12-07T07:54:03;5.60;99.90
1083;DHT22;530;51.448;7.238;2022-12-07T07:56:28;5.80;99.90
1083;DHT22;530;51.448;7.238;2022-12-07T07:58:54;5.60;99.90
1083;DHT22;530;51.448;7.238;2022-12-07T08:01:20;5.70;99.90
1083;DHT22;530;51.448;7.238;2022-12-07T08:03:47;5.70;99.90
1083;DHT22;530;51.448;7.238;2022-12-07T08:06:12;5.60;99.90
1083;DHT22;530;51.448;7.238;2022-12-07T08:08:38;5.60;99.90
1083;DHT22;530;51.448;7.238;2022-12-07T08:11:08;5.60;99.90
1083;DHT22;530;51.448;7.238;2022-12-07T08:13:34;5.70;99.90
1083;DHT22;530;51.448;7.238;2022-12-07T08:16:07;5.60;99.90
1083;DHT22;530;51.448;7.238;2022-12-07T08:18:40;5.60;99.90
1083;DHT22;530;51.448;7.238;2022-12-07T08:21:07;5.70;99.90
1083;DHT22;530;51.448;7.238;2022-12-07T08:23:34;5.80;99.90
1083;DHT22;530;51.448;7.238;2022-12-07T08:26:01;5.60;99.90
1083;DHT22;530;51.448;7.238;2022-12-07T08:28:28;5.50;99.90
1083;DHT22;530;51.448;7.238;2022-12-07T08:31:15;5.60;99.90
1083;DHT22;530;51.448;7.238;2022-12-07T08:33:42;5.70;99.90
1083;DHT22;530;51.448;7.238;2022-12-07T08:36:10;5.70;99.90
1083;DHT22;530;51.448;7.238;2022-12-07T08:38:37;5.70;99.90
1083;DHT22;530;51.448;7.238;2022-12-07T08:41:04;5.80;99.90
1083;DHT22;530;51.448;7.238;2022-12-07T08:43:30;6.00;99.90
1083;DHT22;530;51.448;7.238;2022-12-07T08:51:36;5.70;99.90
1083;DHT22;530;51.448;7.238;2022-12-07T08:54:04;5.70;99.90
1083;DHT22;530;51.448;7.238;2022-12-07T08:56:31;5.70;99.90
1083;DHT22;530;51.448;7.238;2022-12-07T08:58:58;5.60;99.90
1083;DHT22;530;51.448;7.238;2022-12-07T09:01:23;5.80;99.90
1083;DHT22;530;51.448;7.238;2022-12-07T09:03:49;5.70;99.90
1083;DHT22;530;51.448;7.238;2022-12-07T09:06:15;5.80;99.90
1083;DHT22;530;51.448;7.238;2022-12-07T09:08:45;5.70;99.90
1083;DHT22;530;51.448;7.238;2022-12-07T09:11:11;5.70;99.90
1083;DHT22;530;51.448;7.238;2022-12-07T09:13:37;5.80;99.90
1083;DHT22;530;51.448;7.238;2022-12-07T09:16:02;5.90;99.90
1083;DHT22;530;51.448;7.238;2022-12-07T09:18:28;5.70;99.90
1083;DHT22;530;51.448;7.238;2022-12-07T09:20:54;5.80;99.90
1083;DHT22;530;51.448;7.238;2022-12-07T09:23:21;6.00;99.90
1083;DHT22;530;51.448;7.238;2022-12-07T09:25:46;5.90;99.90
1083;DHT22;530;51.448;7.238;2022-12-07T09:28:12;6.00;99.90
1083;DHT22;530;51.448;7.238;2022-12-07T09:30:37;5.80;99.90
1083;DHT22;530;51.448;7.238;2022-12-07T09:33:03;5.90;99.90
1083;DHT22;530;51.448;7.238;2022-12-07T09:35:29;5.80;99.90
1083;DHT22;530;51.448;7.238;2022-12-07T09:37:55;6.10;99.90
1083;DHT22;530;51.448;7.238;2022-12-07T09:40:22;6.00;99.90
1083;DHT22;530;51.448;7.238;2022-12-07T09:42:51;5.90;99.90
1083;DHT22;530;51.448;7.238;2022-12-07T09:47:50;6.00;99.90
1083;DHT22;530;51.448;7.238;2022-12-07T09:50:24;6.00;99.90
1083;DHT22;530;51.448;7.238;2022-12-07T09:52:51;6.00;99.90
1083;DHT22;530;51.448;7.238;2022-12-07T09:55:28;6.10;99.90
1083;DHT22;530;51.448;7.238;2022-12-07T09:57:54;6.10;99.90
1083;DHT22;530;51.448;7.238;2022-12-07T10:00:22;6.20;99.90
1083;DHT22;530;51.448;7.238;2022-12-07T10:02:58;6.20;99.90
1083;DHT22;530;51.448;7.238;2022-12-07T10:05:34;6.10;99.90
1083;DHT22;530;51.448;7.238;2022-12-07T10:08:02;6.30;99.90
1083;DHT22;530;51.448;7.238;2022-12-07T10:10:33;6.40;99.90
1083;DHT22;530;51.448;7.238;2022-12-07T10:13:13;6.70;99.90
1083;DHT22;530;51.448;7.238;2022-12-07T10:15:56;6.70;99.90
1083;DHT22;530;51.448;7.238;2022-12-07T10:18:36;6.70;99.90
1083;DHT22;530;51.448;7.238;2022-12-07T10:21:13;6.80;99.90
1083;DHT22;530;51.448;7.238;2022-12-07T10:23:41;6.60;99.90
1083;DHT22;530;51.448;7.238;2022-12-07T10:28:47;6.70;99.90
1083;DHT22;530;51.448;7.238;2022-12-07T10:31:19;6.50;99.90
1083;DHT22;530;51.448;7.238;2022-12-07T10:33:57;6.50;99.90
1083;DHT22;530;51.448;7.238;2022-12-07T10:36:36;6.60;99.90
1083;DHT22;530;51.448;7.238;2022-12-07T10:39:14;6.40;99.90
1083;DHT22;530;51.448;7.238;2022-12-07T10:44:28;6.50;99.90
1083;DHT22;530;51.448;7.238;2022-12-07T10:55:22;6.50;99.90
1083;DHT22;530;51.448;7.238;2022-12-07T11:00:25;6.50;99.90
1083;DHT22;530;51.448;7.238;2022-12-07T11:05:31;6.70;99.90
1083;DHT22;530;51.448;7.238;2022-12-07T11:14:18;6.70;99.90
1083;DHT22;530;51.448;7.238;2022-12-07T11:30:32;6.60;99.90
1083;DHT22;530;51.448;7.238;2022-12-07T11:34:07;6.60;99.90
1083;DHT22;530;51.448;7.238;2022-12-07T11:36:38;6.80;99.90
1083;DHT22;530;51.448;7.238;2022-12-07T11:41:45;6.80;99.90
1083;DHT22;530;51.448;7.238;2022-12-07T11:46:50;6.90;99.90
1083;DHT22;530;51.448;7.238;2022-12-07T11:51:47;6.80;99.90
1083;DHT22;530;51.448;7.238;2022-12-07T11:54:19;7.00;99.90
1083;DHT22;530;51.448;7.238;2022-12-07T11:56:48;7.00;99.90
1083;DHT22;530;51.448;7.238;2022-12-07T11:59:36;7.10;99.90
1083;DHT22;530;51.448;7.238;2022-12-07T12:02:15;7.30;99.90
1083;DHT22;530;51.448;7.238;2022-12-07T12:04:45;6.90;99.90
1083;DHT22;530;51.448;7.238;2022-12-07T12:07:24;7.20;99.90
1083;DHT22;530;51.448;7.238;2022-12-07T12:09:58;7.00;99.90
1083;DHT22;530;51.448;7.238;2022-12-07T12:20:48;7.00;99.90
1083;DHT22;530;51.448;7.238;2022-12-07T12:23:19;6.90;99.90
1083;DHT22;530;51.448;7.238;2022-12-07T12:25:49;6.90;99.90
1083;DHT22;530;51.448;7.238;2022-12-07T12:28:55;7.00;99.90
1083;DHT22;530;51.448;7.238;2022-12-07T12:37:00;6.70;99.90
1083;DHT22;530;51.448;7.238;2022-12-07T12:39:09;6.80;99.90
1083;DHT22;530;51.448;7.238;2022-12-07T12:51:45;6.90;99.90
1083;DHT22;530;51.448;7.238;2022-12-07T12:54:19;6.70;99.90
1083;DHT22;530;51.448;7.238;2022-12-07T13:02:21;6.70;99.90
1083;DHT22;530;51.448;7.238;2022-12-07T13:04:52;6.90;99.90
1083;DHT22;530;51.448;7.238;2022-12-07T13:07:52;7.00;99.90
1083;DHT22;530;51.448;7.238;2022-12-07T13:15:48;6.90;99.90
1083;DHT22;530;51.448;7.238;2022-12-07T13:26:24;7.00;99.90
1083;DHT22;530;51.448;7.238;2022-12-07T13:28:52;6.90;99.90
1083;DHT22;530;51.448;7.238;2022-12-07T13:31:35;6.70;99.90
1083;DHT22;530;51.448;7.238;2022-12-07T13:34:02;7.00;99.90
1083;DHT22;530;51.448;7.238;2022-12-07T13:36:36;6.90;99.90
1083;DHT22;530;51.448;7.238;2022-12-07T13:39:18;6.80;99.90
1083;DHT22;530;51.448;7.238;2022-12-07T13:41:49;6.80;99.90
1083;DHT22;530;51.448;7.238;2022-12-07T13:44:17;6.80;99.90
1083;DHT22;530;51.448;7.238;2022-12-07T13:49:44;6.80;99.90
1083;DHT22;530;51.448;7.238;2022-12-07T13:52:23;6.80;99.90
1083;DHT22;530;51.448;7.238;2022-12-07T13:54:58;6.80;99.90
1083;DHT22;530;51.448;7.238;2022-12-07T13:57:26;6.80;99.90
1083;DHT22;530;51.448;7.238;2022-12-07T13:59:52;6.80;99.90
1083;DHT22;530;51.448;7.238;2022-12-07T14:02:26;6.90;99.90
1083;DHT22;530;51.448;7.238;2022-12-07T14:07:34;6.80;99.90
1083;DHT22;530;51.448;7.238;2022-12-07T14:10:05;6.90;99.90
1083;DHT22;530;51.448;7.238;2022-12-07T14:12:32;7.00;99.90
1083;DHT22;530;51.448;7.238;2022-12-07T14:14:59;6.90;99.90
1083;DHT22;530;51.448;7.238;2022-12-07T14:17:27;6.80;99.90
1083;DHT22;530;51.448;7.238;2022-12-07T14:19:55;6.90;99.90
1083;DHT22;530;51.448;7.238;2022-12-07T14:22:32;6.90;99.90
1083;DHT22;530;51.448;7.238;2022-12-07T14:25:22;6.90;99.90
1083;DHT22;530;51.448;7.238;2022-12-07T14:27:53;7.00;99.90
1083;DHT22;530;51.448;7.238;2022-12-07T14:30:23;6.80;99.90
1083;DHT22;530;51.448;7.238;2022-12-07T14:32:53;6.80;99.90
1083;DHT22;530;51.448;7.238;2022-12-07T14:35:20;6.90;99.90
1083;DHT22;530;51.448;7.238;2022-12-07T14:37:48;6.80;99.90
1083;DHT22;530;51.448;7.238;2022-12-07T14:40:26;7.10;99.90
1083;DHT22;530;51.448;7.238;2022-12-07T14:43:12;7.00;99.90
1083;DHT22;530;51.448;7.238;2022-12-07T14:45:40;6.80;99.90
1083;DHT22;530;51.448;7.238;2022-12-07T14:48:07;6.80;99.90
1083;DHT22;530;51.448;7.238;2022-12-07T14:50:39;6.80;99.90
1083;DHT22;530;51.448;7.238;2022-12-07T14:53:17;7.00;99.90
1083;DHT22;530;51.448;7.238;2022-12-07T14:55:44;7.00;99.90
1083;DHT22;530;51.448;7.238;2022-12-07T14:58:15;6.90;99.90
1083;DHT22;530;51.448;7.238;2022-12-07T15:00:41;6.90;99.90
1083;DHT22;530;51.448;7.238;2022-12-07T15:03:07;6.70;99.90
1083;DHT22;530;51.448;7.238;2022-12-07T15:05:33;6.80;99.90
1083;DHT22;530;51.448;7.238;2022-12-07T15:07:59;6.60;99.90
1083;DHT22;530;51.448;7.238;2022-12-07T15:10:28;6.90;99.90
1083;DHT22;530;51.448;7.238;2022-12-07T15:13:02;6.70;99.90
1083;DHT22;530;51.448;7.238;2022-12-07T15:15:48;6.50;99.90
1083;DHT22;530;51.448;7.238;2022-12-07T15:18:14;6.70;99.90
1083;DHT22;530;51.448;7.238;2022-12-07T15:20:40;6.60;99.90
1083;DHT22;530;51.448;7.238;2022-12-07T15:23:06;6.60;99.90
1083;DHT22;530;51.448;7.238;2022-12-07T15:25:32;6.40;99.90
1083;DHT22;530;51.448;7.238;2022-12-07T15:27:58;6.50;99.90
1083;DHT22;530;51.448;7.238;2022-12-07T15:30:24;6.40;99.90
1083;DHT22;530;51.448;7.238;2022-12-07T15:32:50;6.30;99.90
1083;DHT22;530;51.448;7.238;2022-12-07T15:35:16;6.40;99.90
1083;DHT22;530;51.448;7.238;2022-12-07T15:37:42;6.40;99.90
1083;DHT22;530;51.448;7.238;2022-12-07T15:40:08;6.50;99.90
1083;DHT22;530;51.448;7.238;2022-12-07T15:42:35;6.30;99.90
1083;DHT22;530;51.448;7.238;2022-12-07T15:45:01;6.20;99.90
1083;DHT22;530;51.448;7.238;2022-12-07T15:47:31;6.30;99.90
1083;DHT22;530;51.448;7.238;2022-12-07T15:49:57;6.20;99.90
1083;DHT22;530;51.448;7.238;2022-12-07T15:52:22;6.30;99.90
1083;DHT22;530;51.448;7.238;2022-12-07T15:54:48;6.40;99.90
1083;DHT22;530;51.448;7.238;2022-12-07T15:57:14;6.20;99.90
1083;DHT22;530;51.448;7.238;2022-12-07T15:59:40;6.10;99.90
1083;DHT22;530;51.448;7.238;2022-12-07T16:02:05;6.20;99.90
1083;DHT22;530;51.448;7.238;2022-12-07T16:04:31;6.00;99.90
1083;DHT22;530;51.448;7.238;2022-12-07T16:06:57;6.20;99.90
1083;DHT22;530;51.448;7.238;2022-12-07T16:09:23;6.10;99.90
1083;DHT22;530;51.448;7.238;2022-12-07T16:11:48;6.10;99.90
1083;DHT22;530;51.448;7.238;2022-12-07T16:14:16;5.90;99.90
1083;DHT22;530;51.448;7.238;2022-12-07T16:16:41;6.10;99.90
1083;DHT22;530;51.448;7.238;2022-12-07T16:19:07;6.00;99.90
1083;DHT22;530;51.448;7.238;2022-12-07T16:21:34;6.00;99.90
1083;DHT22;530;51.448;7.238;2022-12-07T16:24:01;6.00;99.90
1083;DHT22;530;51.448;7.238;2022-12-07T16:26:27;6.00;99.90
1083;DHT22;530;51.448;7.238;2022-12-07T16:28:53;6.10;99.90
1083;DHT22;530;51.448;7.238;2022-12-07T16:31:22;6.00;99.90
1083;DHT22;530;51.448;7.238;2022-12-07T16:33:49;6.00;99.90
1083;DHT22;530;51.448;7.238;2022-12-07T16:36:16;6.10;99.90
1083;DHT22;530;51.448;7.238;2022-12-07T16:38:43;6.00;99.90
1083;DHT22;530;51.448;7.238;2022-12-07T16:41:09;5.90;99.90
1083;DHT22;530;51.448;7.238;2022-12-07T16:43:36;6.00;99.90
1083;DHT22;530;51.448;7.238;2022-12-07T16:46:02;6.10;99.90
1083;DHT22;530;51.448;7.238;2022-12-07T16:48:28;6.10;99.90
1083;DHT22;530;51.448;7.238;2022-12-07T16:50:54;5.90;99.90
1083;DHT22;530;51.448;7.238;2022-12-07T16:53:21;6.10;99.90
1083;DHT22;530;51.448;7.238;2022-12-07T16:55:46;6.10;99.90
1083;DHT22;530;51.448;7.238;2022-12-07T16:58:13;5.90;99.90
1083;DHT22;530;51.448;7.238;2022-12-07T17:00:40;6.00;99.90
1083;DHT22;530;51.448;7.238;2022-12-07T17:03:06;6.00;99.90
1083;DHT22;530;51.448;7.238;2022-12-07T17:05:32;6.10;99.90
1083;DHT22;530;51.448;7.238;2022-12-07T17:07:58;5.90;99.90
1083;DHT22;530;51.448;7.238;2022-12-07T17:10:25;6.10;99.90
1083;DHT22;530;51.448;7.238;2022-12-07T17:12:51;6.00;99.90
1083;DHT22;530;51.448;7.238;2022-12-07T17:15:17;5.90;99.90
1083;DHT22;530;51.448;7.238;2022-12-07T17:17:55;6.10;99.90
1083;DHT22;530;51.448;7.238;2022-12-07T17:20:22;5.90;99.90
1083;DHT22;530;51.448;7.238;2022-12-07T17:22:48;6.20;99.90
1083;DHT22;530;51.448;7.238;2022-12-07T17:25:14;6.00;99.90
1083;DHT22;530;51.448;7.238;2022-12-07T17:27:40;6.00;99.90
1083;DHT22;530;51.448;7.238;2022-12-07T17:30:07;6.00;99.90
1083;DHT22;530;51.448;7.238;2022-12-07T17:32:33;6.20;99.90
1083;DHT22;530;51.448;7.238;2022-12-07T17:34:59;6.20;99.90
1083;DHT22;530;51.448;7.238;2022-12-07T17:37:26;6.00;99.90
1083;DHT22;530;51.448;7.238;2022-12-07T17:39:52;6.20;99.90
1083;DHT22;530;51.448;7.238;2022-12-07T17:42:19;6.10;99.90
1083;DHT22;530;51.448;7.238;2022-12-07T17:45:07;6.20;99.90
1083;DHT22;530;51.448;7.238;2022-12-07T17:47:33;6.20;99.90
1083;DHT22;530;51.448;7.238;2022-12-07T17:49:59;6.00;99.90
1083;DHT22;530;51.448;7.238;2022-12-07T17:52:24;6.10;99.90
1083;DHT22;530;51.448;7.238;2022-12-07T17:55:08;6.00;99.90
1083;DHT22;530;51.448;7.238;2022-12-07T17:57:34;6.10;99.90
1083;DHT22;530;51.448;7.238;2022-12-07T18:00:00;6.10;99.90
1083;DHT22;530;51.448;7.238;2022-12-07T18:02:25;5.80;99.90
1083;DHT22;530;51.448;7.238;2022-12-07T18:04:51;6.00;99.90
1083;DHT22;530;51.448;7.238;2022-12-07T18:07:18;6.10;99.90
1083;DHT22;530;51.448;7.238;2022-12-07T18:09:43;6.00;99.90
1083;DHT22;530;51.448;7.238;2022-12-07T18:12:09;6.00;99.90
1083;DHT22;530;51.448;7.238;2022-12-07T18:14:35;6.20;99.90
1083;DHT22;530;51.448;7.238;2022-12-07T18:17:01;6.10;99.90
1083;DHT22;530;51.448;7.238;2022-12-07T18:19:27;6.00;99.90
1083;DHT22;530;51.448;7.238;2022-12-07T18:21:52;6.10;99.90
1083;DHT22;530;51.448;7.238;2022-12-07T18:24:18;6.10;99.90
1083;DHT22;530;51.448;7.238;2022-12-07T18:26:44;6.10;99.90
1083;DHT22;530;51.448;7.238;2022-12-07T18:29:14;6.00;99.90
1083;DHT22;530;51.448;7.238;2022-12-07T18:31:40;6.10;99.90
1083;DHT22;530;51.448;7.238;2022-12-07T18:34:08;6.00;99.90
1083;DHT22;530;51.448;7.238;2022-12-07T18:36:40;5.90;99.90
1083;DHT22;530;51.448;7.238;2022-12-07T18:39:07;6.00;99.90
1083;DHT22;530;51.448;7.238;2022-12-07T18:41:33;6.00;99.90
1083;DHT22;530;51.448;7.238;2022-12-07T18:43:59;6.10;99.90
1083;DHT22;530;51.448;7.238;2022-12-07T18:46:25;5.90;99.90
1083;DHT22;530;51.448;7.238;2022-12-07T18:48:51;6.10;99.90
1083;DHT22;530;51.448;7.238;2022-12-07T18:51:18;6.00;99.90
1083;DHT22;530;51.448;7.238;2022-12-07T18:53:44;6.10;99.90
1083;DHT22;530;51.448;7.238;2022-12-07T18:56:19;5.80;99.90
1083;DHT22;530;51.448;7.238;2022-12-07T18:58:50;6.00;99.90
1083;DHT22;530;51.448;7.238;2022-12-07T19:01:35;6.00;99.90
1083;DHT22;530;51.448;7.238;2022-12-07T19:04:01;6.00;99.90
1083;DHT22;530;51.448;7.238;2022-12-07T19:06:27;6.00;99.90
1083;DHT22;530;51.448;7.238;2022-12-07T19:08:54;5.80;99.90
1083;DHT22;530;51.448;7.238;2022-12-07T19:11:23;6.10;99.90
1083;DHT22;530;51.448;7.238;2022-12-07T19:14:08;6.00;99.90
1083;DHT22;530;51.448;7.238;2022-12-07T19:16:34;6.00;99.90